Time;durP1;ratioP1;P1;durP2;ratioP2;P2;SDS_P1;SDS_P2;PMS_P1;PMS_P2;Temp;Humidity;BMP_temperature;BMP_pressure;BME280_temperature;BME280_humidity;BME280_pressure;Samples;Min_cycle;Max_cycle;Signal;HPM_P1;HPM_P2
2023/05/16 00:01:38;;;;;;;10.90;1.83;;;8.20;99.90;;;;;;5097117;28;20414;-70
2023/05/16 00:04:04;;;;;;;6.80;1.40;;;8.30;99.90;;;;;;5113264;27;20897;-70
2023/05/16 00:06:30;;;;;;;8.10;1.60;;;8.30;99.90;;;;;;5118803;27;20042;-70
2023/05/16 00:08:56;;;;;;;5.40;1.50;;;8.30;99.90;;;;;;5110246;27;20096;-70
2023/05/16 00:11:22;;;;;;;7.32;1.42;;;8.40;99.90;;;;;;5119129;27;20035;-70
2023/05/16 00:13:48;;;;;;;7.70;1.85;;;8.30;99.90;;;;;;5086089;28;20043;-70
2023/05/16 00:16:14;;;;;;;8.45;1.75;;;8.30;99.90;;;;;;5115139;27;20387;-70
2023/05/16 00:18:39;;;;;;;11.68;1.80;;;8.40;99.90;;;;;;5121949;27;20835;-70
2023/05/16 00:21:05;;;;;;;6.82;1.42;;;8.30;99.90;;;;;;5113230;27;20043;-70
2023/05/16 00:23:32;;;;;;;7.70;1.48;;;8.30;99.90;;;;;;5116250;27;20052;-71
2023/05/16 00:25:57;;;;;;;4.72;1.63;;;8.30;99.90;;;;;;5115055;27;20421;-70
2023/05/16 00:28:23;;;;;;;7.38;1.20;;;8.30;99.90;;;;;;5097745;27;20049;-71
2023/05/16 00:30:49;;;;;;;10.85;1.70;;;8.30;99.90;;;;;;5128660;27;20051;-70
2023/05/16 00:33:15;;;;;;;9.50;1.75;;;8.30;99.90;;;;;;5093605;28;20126;-71
2023/05/16 00:35:40;;;;;;;6.32;1.42;;;8.30;99.90;;;;;;5094409;28;20043;-70
2023/05/16 00:38:06;;;;;;;8.60;1.80;;;8.30;99.90;;;;;;5128070;27;20482;-71
2023/05/16 00:40:32;;;;;;;9.95;1.70;;;8.20;99.90;;;;;;5128353;27;20042;-70
2023/05/16 00:42:58;;;;;;;9.70;1.63;;;8.20;99.90;;;;;;5112128;27;20047;-70
2023/05/16 00:45:24;;;;;;;8.43;1.50;;;8.10;99.90;;;;;;5127895;27;20084;-71
2023/05/16 00:47:50;;;;;;;8.95;1.60;;;8.10;99.90;;;;;;5114814;27;20429;-70
2023/05/16 00:50:16;;;;;;;;;;;8.10;99.90;;;;;;5110879;28;20039;-70
2023/05/16 00:52:42;;;;;;;9.95;1.40;;;8.10;99.90;;;;;;5120076;27;19958;-71
2023/05/16 00:55:11;;;;;;;5.60;1.50;;;8.10;99.20;;;;;;5128309;27;20083;-70
2023/05/16 00:57:38;;;;;;;12.48;2.28;;;8.10;90.70;;;;;;5123030;28;20034;-70
2023/05/16 01:00:09;;;;;;;8.60;1.77;;;8.00;84.00;;;;;;5115897;28;20067;-70
2023/05/16 01:02:36;;;;;;;8.45;1.55;;;7.90;91.10;;;;;;5114443;27;20040;-70
2023/05/16 01:05:07;;;;;;;7.57;1.58;;;7.90;75.00;;;;;;5123753;27;20039;-70
2023/05/16 01:07:34;;;;;;;9.90;1.90;;;7.90;86.50;;;;;;5107763;27;20031;-70
2023/05/16 01:10:01;;;;;;;8.55;1.20;;;7.80;79.70;;;;;;5123231;27;20122;-70
2023/05/16 01:12:38;;;;;;;5.95;1.20;;;7.80;74.80;;;;;;5116342;27;20046;-71
2023/05/16 01:15:08;;;;;;;7.30;1.20;;;7.70;73.50;;;;;;5118995;27;20047;-70
2023/05/16 01:18:02;;;;;;;6.55;1.67;;;7.70;74.90;;;;;;5121525;27;20088;-70
2023/05/16 01:21:03;;;;;;;3.58;0.90;;;7.70;83.30;;;;;;5125404;27;20126;-70
2023/05/16 01:23:53;;;;;;;6.20;1.20;;;7.70;92.50;;;;;;5115721;27;20483;-70
2023/05/16 01:26:22;;;;;;;5.10;1.10;;;7.60;99.90;;;;;;5124879;27;20128;-70
2023/05/16 01:28:51;;;;;;;6.72;1.27;;;7.60;99.90;;;;;;5125620;27;20061;-70
2023/05/16 01:31:18;;;;;;;9.00;1.48;;;7.60;99.90;;;;;;5096455;28;20043;-70
2023/05/16 01:33:44;;;;;;;6.20;1.20;;;7.70;99.90;;;;;;5111875;27;20053;-70
2023/05/16 01:36:20;;;;;;;5.05;1.35;;;7.70;99.90;;;;;;5126528;27;20044;-70
2023/05/16 01:38:58;;;;;;;9.52;1.52;;;7.70;99.90;;;;;;5121464;27;20068;-70
2023/05/16 01:41:34;;;;;;;6.57;1.30;;;7.80;99.90;;;;;;5129958;27;20042;-70
2023/05/16 01:44:04;;;;;;;5.70;1.23;;;7.80;99.90;;;;;;5125512;27;20051;-70
2023/05/16 01:46:37;;;;;;;3.92;1.15;;;7.80;99.90;;;;;;5117084;27;20035;-70
2023/05/16 01:49:30;;;;;;;8.13;1.10;;;7.80;99.90;;;;;;5117168;27;20048;-70
2023/05/16 01:52:21;;;;;;;9.05;1.65;;;7.80;99.90;;;;;;5066953;28;20483;-70
2023/05/16 01:54:48;;;;;;;5.00;0.90;;;7.80;99.90;;;;;;5103990;27;20385;-70
2023/05/16 01:57:16;;;;;;;3.20;1.00;;;7.70;99.90;;;;;;5114298;27;20428;-70
2023/05/16 01:59:43;;;;;;;4.53;1.00;;;7.70;99.90;;;;;;5112867;27;20051;-70
2023/05/16 02:02:09;;;;;;;6.40;1.13;;;7.70;99.90;;;;;;5112759;27;20170;-70
2023/05/16 02:04:34;;;;;;;5.93;1.20;;;7.70;99.90;;;;;;5122825;27;20159;-70
2023/05/16 02:07:00;;;;;;;3.60;0.90;;;7.70;99.90;;;;;;5113868;27;20040;-70
2023/05/16 02:09:26;;;;;;;6.65;1.27;;;7.60;99.90;;;;;;5129058;27;20119;-71
2023/05/16 02:11:52;;;;;;;6.10;1.17;;;7.60;99.90;;;;;;5128006;27;20621;-70
2023/05/16 02:14:18;;;;;;;3.22;0.90;;;7.60;99.90;;;;;;5115274;27;20123;-70
2023/05/16 02:16:44;;;;;;;5.82;1.40;;;7.60;99.90;;;;;;5116428;27;20367;-70
2023/05/16 02:19:10;;;;;;;6.32;1.30;;;7.60;99.90;;;;;;5101067;28;20153;-70
2023/05/16 02:21:35;;;;;;;6.40;1.38;;;7.60;99.90;;;;;;5112505;27;20101;-70
2023/05/16 02:24:01;;;;;;;7.97;1.40;;;7.70;99.90;;;;;;5106574;27;20051;-70
2023/05/16 02:26:27;;;;;;;4.13;1.05;;;7.70;99.90;;;;;;5107046;28;20109;-70
2023/05/16 02:28:53;;;;;;;5.95;1.20;;;7.80;99.90;;;;;;5122215;27;20050;-70
2023/05/16 02:31:29;;;;;;;4.15;1.20;;;7.90;99.90;;;;;;5112420;27;20046;-70
2023/05/16 02:33:57;;;;;;;3.42;1.00;;;7.90;99.90;;;;;;5123081;27;20039;-70
2023/05/16 02:36:23;;;;;;;5.95;1.02;;;7.90;99.90;;;;;;5110397;27;20421;-71
2023/05/16 02:38:49;;;;;;;8.35;1.30;;;8.00;99.90;;;;;;5129822;27;20185;-70
2023/05/16 02:41:14;;;;;;;6.05;1.52;;;8.00;99.90;;;;;;5129157;27;20155;-70
2023/05/16 02:43:40;;;;;;;6.00;1.08;;;7.90;99.90;;;;;;5118307;27;20039;-70
2023/05/16 02:46:29;;;;;;;4.55;1.20;;;7.90;99.90;;;;;;5120359;27;20067;-70
2023/05/16 02:48:55;;;;;;;5.47;1.50;;;7.80;99.90;;;;;;5121337;27;20112;-70
2023/05/16 02:51:22;;;;;;;7.47;1.63;;;7.80;99.90;;;;;;5126225;27;20466;-70
2023/05/16 02:53:48;;;;;;;6.72;1.60;;;7.80;99.90;;;;;;5111794;27;20039;-70
2023/05/16 02:56:14;;;;;;;;;;;7.80;99.90;;;;;;5113669;27;20118;-70
2023/05/16 02:58:40;;;;;;;6.20;1.52;;;7.80;99.90;;;;;;5117086;27;19998;-70
2023/05/16 03:01:06;;;;;;;6.03;1.50;;;7.80;99.90;;;;;;5113773;27;20047;-70
2023/05/16 03:03:34;;;;;;;6.05;1.40;;;7.90;99.90;;;;;;5105524;27;20680;-70
2023/05/16 03:06:00;;;;;;;6.70;1.70;;;7.90;99.90;;;;;;5121062;27;20086;-70
2023/05/16 03:08:26;;;;;;;8.98;1.75;;;8.00;99.90;;;;;;5104557;27;20039;-69
2023/05/16 03:10:52;;;;;;;7.57;1.60;;;7.90;99.90;;;;;;5104749;28;20036;-70
2023/05/16 03:13:17;;;;;;;7.90;1.60;;;7.90;99.90;;;;;;5097174;28;20494;-69
2023/05/16 03:15:44;;;;;;;9.00;1.88;;;7.90;99.90;;;;;;5125150;27;20490;-70
2023/05/16 03:18:10;;;;;;;5.65;1.20;;;7.90;99.90;;;;;;5116174;27;20039;-70
2023/05/16 03:20:37;;;;;;;4.18;1.02;;;7.80;99.90;;;;;;5111982;27;20032;-70
2023/05/16 03:23:06;;;;;;;4.82;1.10;;;7.80;99.90;;;;;;5110704;27;20051;-70
2023/05/16 03:25:33;;;;;;;4.47;1.00;;;7.70;99.90;;;;;;5126240;27;20062;-70
2023/05/16 03:27:58;;;;;;;7.22;1.75;;;7.70;99.90;;;;;;5105378;27;20056;-69
2023/05/16 03:30:25;;;;;;;7.00;1.33;;;7.70;99.90;;;;;;5115297;27;20406;-70
2023/05/16 03:32:51;;;;;;;;;;;7.60;99.90;;;;;;5111065;27;20426;-70
2023/05/16 03:35:16;;;;;;;5.82;1.50;;;7.60;99.90;;;;;;5120353;27;19926;-70
2023/05/16 03:37:42;;;;;;;4.40;1.20;;;7.60;99.90;;;;;;5122975;27;20043;-70
2023/05/16 03:40:08;;;;;;;4.22;1.10;;;7.60;99.90;;;;;;5118413;27;20050;-70
2023/05/16 03:42:34;;;;;;;4.35;1.15;;;7.60;99.90;;;;;;5094464;28;20079;-70
2023/05/16 03:44:59;;;;;;;5.00;1.20;;;7.60;99.90;;;;;;5096976;28;20440;-69
2023/05/16 03:47:25;;;;;;;5.95;1.33;;;7.60;99.90;;;;;;5110858;27;20470;-70
2023/05/16 03:49:52;;;;;;;7.85;1.63;;;7.60;99.90;;;;;;5101744;27;20479;-70
2023/05/16 03:52:17;;;;;;;7.07;1.40;;;7.60;99.90;;;;;;5125113;27;20046;-70
2023/05/16 03:54:43;;;;;;;5.13;0.85;;;7.60;99.90;;;;;;5115404;27;20381;-70
2023/05/16 03:57:09;;;;;;;5.03;1.30;;;7.60;99.90;;;;;;5110426;27;20084;-70
2023/05/16 03:59:35;;;;;;;3.45;0.90;;;7.60;99.90;;;;;;5116334;27;20054;-70
2023/05/16 04:02:00;;;;;;;4.88;0.90;;;7.50;99.90;;;;;;5109475;27;20088;-69
2023/05/16 04:04:26;;;;;;;5.80;1.30;;;7.50;99.90;;;;;;5124397;27;20088;-69
2023/05/16 04:06:52;;;;;;;6.50;1.15;;;7.50;99.90;;;;;;5120097;27;20130;-70
2023/05/16 04:09:18;;;;;;;6.85;1.15;;;7.50;99.90;;;;;;5112506;27;20043;-70
2023/05/16 04:11:44;;;;;;;4.95;1.10;;;7.60;99.90;;;;;;5122305;27;21136;-70
2023/05/16 04:14:10;;;;;;;8.85;1.00;;;7.60;99.90;;;;;;5119284;27;20035;-70
2023/05/16 04:16:35;;;;;;;5.80;1.10;;;7.60;99.90;;;;;;5119889;27;20046;-70
2023/05/16 04:19:02;;;;;;;4.88;1.15;;;7.60;99.90;;;;;;5102844;27;20050;-70
2023/05/16 04:21:28;;;;;;;4.68;1.20;;;7.60;99.90;;;;;;5102395;27;20192;-71
2023/05/16 04:23:54;;;;;;;5.18;1.20;;;7.70;99.90;;;;;;5102629;27;20138;-70
2023/05/16 04:26:21;;;;;;;4.15;1.38;;;7.70;99.90;;;;;;5117271;27;20031;-70
2023/05/16 04:28:47;;;;;;;5.32;1.60;;;7.70;98.50;;;;;;5126737;27;20386;-71
2023/05/16 04:31:13;;;;;;;2.92;1.00;;;7.70;90.40;;;;;;5116463;27;20039;-70
2023/05/16 04:33:39;;;;;;;8.57;1.40;;;7.70;68.60;;;;;;5113029;27;20043;-70
2023/05/16 04:36:04;;;;;;;2.75;0.70;;;7.70;63.60;;;;;;5116970;27;20058;-70
2023/05/16 04:38:31;;;;;;;3.08;0.80;;;7.70;77.20;;;;;;5082174;27;20054;-70
2023/05/16 04:40:57;;;;;;;4.57;1.02;;;7.70;92.60;;;;;;5094544;28;20039;-70
2023/05/16 04:43:23;;;;;;;4.55;0.73;;;7.60;99.90;;;;;;5112929;27;20099;-71
2023/05/16 04:45:49;;;;;;;1.55;0.70;;;7.60;99.90;;;;;;5085597;28;20514;-71
2023/05/16 04:48:15;;;;;;;4.95;1.33;;;7.60;99.90;;;;;;5120998;27;20249;-71
2023/05/16 04:50:41;;;;;;;4.60;1.00;;;7.60;99.90;;;;;;5109048;27;20403;-71
2023/05/16 04:53:07;;;;;;;3.35;0.77;;;7.60;99.90;;;;;;5112498;28;20031;-71
2023/05/16 04:55:32;;;;;;;2.25;0.85;;;7.60;99.90;;;;;;5119445;27;20031;-71
2023/05/16 04:57:58;;;;;;;2.30;0.82;;;7.70;99.90;;;;;;5115735;28;20050;-71
2023/05/16 05:00:24;;;;;;;4.05;0.98;;;7.70;99.90;;;;;;5122148;28;20339;-70
2023/05/16 05:02:50;;;;;;;2.35;0.85;;;7.70;99.90;;;;;;5112899;28;20062;-70
2023/05/16 05:05:15;;;;;;;3.55;0.82;;;7.70;99.90;;;;;;5100087;28;20043;-71
2023/05/16 05:07:41;;;;;;;2.60;0.80;;;7.80;99.90;;;;;;5114418;27;20031;-71
2023/05/16 05:10:07;;;;;;;5.25;0.80;;;7.80;99.90;;;;;;5111890;28;20083;-70
2023/05/16 05:12:34;;;;;;;3.20;0.63;;;7.80;99.90;;;;;;5112932;28;20051;-71
2023/05/16 05:15:00;;;;;;;1.95;0.80;;;7.80;99.90;;;;;;5110461;28;20521;-72
2023/05/16 05:17:26;;;;;;;2.95;0.80;;;7.90;99.90;;;;;;5094747;28;20036;-71
2023/05/16 05:19:51;;;;;;;4.22;0.80;;;7.90;99.90;;;;;;5111940;28;20127;-70
2023/05/16 05:22:17;;;;;;;6.25;1.45;;;7.90;99.90;;;;;;5119087;28;20071;-70
2023/05/16 05:24:43;;;;;;;3.45;1.00;;;8.00;99.90;;;;;;5116466;28;20067;-70
2023/05/16 05:27:08;;;;;;;7.60;1.35;;;8.10;99.90;;;;;;5094379;28;20498;-70
2023/05/16 05:29:34;;;;;;;5.97;1.52;;;8.20;99.90;;;;;;5107702;28;20042;-71
2023/05/16 05:32:00;;;;;;;4.32;1.33;;;8.30;99.90;;;;;;5111306;28;20040;-71
2023/05/16 05:34:25;;;;;;;5.47;1.20;;;8.50;99.90;;;;;;5110275;28;20048;-71
2023/05/16 05:36:51;;;;;;;5.78;1.30;;;8.60;99.90;;;;;;5107698;28;20039;-71
2023/05/16 05:39:17;;;;;;;3.65;1.10;;;8.60;99.90;;;;;;5110728;28;20127;-71
2023/05/16 05:41:42;;;;;;;5.55;1.20;;;8.70;99.90;;;;;;5113250;28;20059;-71
2023/05/16 05:44:08;;;;;;;6.88;1.33;;;8.80;99.90;;;;;;5111016;28;20040;-70
2023/05/16 05:46:34;;;;;;;4.30;1.15;;;9.00;99.90;;;;;;5114563;28;20537;-71
2023/05/16 05:49:00;;;;;;;8.23;1.40;;;9.20;99.90;;;;;;5098933;27;20061;-71
2023/05/16 05:51:26;;;;;;;7.63;1.33;;;9.50;40.00;;;;;;5101630;27;20492;-71
2023/05/16 05:53:53;;;;;;;6.07;1.20;;;9.90;99.90;;;;;;5091999;28;20127;-72
2023/05/16 05:56:20;;;;;;;10.60;1.35;;;10.30;99.90;;;;;;5122127;27;20035;-71
2023/05/16 05:58:45;;;;;;;6.90;1.27;;;10.70;99.90;;;;;;5115940;27;20051;-71
2023/05/16 06:01:11;;;;;;;6.57;1.40;;;11.00;99.90;;;;;;5112834;27;20384;-71
2023/05/16 06:03:37;;;;;;;7.97;1.13;;;11.30;1.00;;;;;;5098550;27;20122;-71
2023/05/16 06:06:03;;;;;;;8.52;1.90;;;11.60;99.90;;;;;;5099482;27;20068;-71
2023/05/16 06:08:29;;;;;;;;;;;11.90;17.70;;;;;;5120188;27;20039;-71
2023/05/16 06:10:55;;;;;;;6.53;1.38;;;12.10;99.90;;;;;;5112563;27;19934;-71
2023/05/16 06:13:20;;;;;;;5.82;1.30;;;12.10;99.90;;;;;;5122645;27;20043;-71
2023/05/16 06:15:53;;;;;;;4.22;0.90;;;11.90;1.00;;;;;;5117845;27;20047;-71
2023/05/16 06:18:19;;;;;;;4.82;1.25;;;11.60;1.00;;;;;;5124645;27;20454;-72
2023/05/16 06:20:45;;;;;;;8.70;1.30;;;11.60;97.40;;;;;;5125853;27;20134;-71
2023/05/16 06:23:11;;;;;;;5.40;1.45;;;11.30;1.00;;;;;;5119690;27;20064;-71
2023/05/16 06:25:37;;;;;;;2.55;0.80;;;11.00;99.90;;;;;;5116423;27;20070;-71
2023/05/16 06:28:03;;;;;;;4.88;1.08;;;10.90;99.90;;;;;;5121058;27;21598;-71
2023/05/16 06:30:28;;;;;;;2.95;0.77;;;10.80;99.90;;;;;;5113987;27;20040;-70
2023/05/16 06:32:54;;;;;;;2.45;1.00;;;10.90;1.00;;;;;;5127869;27;20382;-71
2023/05/16 06:35:20;;;;;;;5.50;1.17;;;10.90;99.90;;;;;;5119553;27;20050;-70
2023/05/16 06:37:46;;;;;;;4.88;1.10;;;10.80;99.90;;;;;;5119010;27;20086;-70
2023/05/16 06:40:11;;;;;;;6.38;1.08;;;10.70;99.90;;;;;;5126791;27;20097;-71
2023/05/16 06:42:37;;;;;;;5.63;1.20;;;10.70;99.90;;;;;;5119122;27;20486;-70
2023/05/16 06:45:03;;;;;;;6.05;1.33;;;10.70;99.90;;;;;;5104137;27;20043;-70
2023/05/16 06:47:29;;;;;;;4.22;1.10;;;10.60;1.00;;;;;;5128214;27;20035;-70
2023/05/16 06:49:55;;;;;;;5.63;1.10;;;10.70;52.10;;;;;;5118654;27;20498;-70
2023/05/16 06:52:21;;;;;;;5.03;1.20;;;10.80;16.30;;;;;;5111381;27;20036;-70
2023/05/16 06:54:46;;;;;;;7.72;1.45;;;10.70;21.90;;;;;;5098708;27;20110;-71
2023/05/16 06:57:12;;;;;;;5.15;1.08;;;10.70;1.00;;;;;;5104743;27;20184;-71
2023/05/16 06:59:38;;;;;;;4.10;1.05;;;10.80;1.00;;;;;;5113996;27;20039;-71
2023/05/16 07:02:05;;;;;;;4.30;1.40;;;10.80;99.90;;;;;;5112290;27;20536;-70
2023/05/16 07:04:31;;;;;;;5.72;1.15;;;10.80;99.90;;;;;;5113126;27;20051;-71
2023/05/16 07:06:57;;;;;;;4.38;1.17;;;10.90;99.90;;;;;;5113768;27;20043;-70
2023/05/16 07:09:23;;;;;;;4.72;1.40;;;11.00;1.00;;;;;;5116449;27;20057;-71
2023/05/16 07:11:48;;;;;;;5.13;1.20;;;11.10;5.20;;;;;;5125331;27;20117;-70
2023/05/16 07:14:14;;;;;;;7.53;1.30;;;11.20;1.00;;;;;;5106102;27;20073;-70
2023/05/16 07:16:40;;;;;;;5.72;1.17;;;11.20;1.00;;;;;;5106243;27;20146;-71
2023/05/16 07:19:06;;;;;;;5.65;1.20;;;11.30;4.80;;;;;;5119713;27;20039;-70
2023/05/16 07:21:32;;;;;;;5.57;1.20;;;11.50;1.00;;;;;;5119826;27;20050;-70
2023/05/16 07:23:57;;;;;;;5.57;1.20;;;11.60;1.00;;;;;;5128101;27;20047;-70
2023/05/16 07:26:23;;;;;;;8.18;1.77;;;11.70;99.90;;;;;;5126081;27;20475;-71
2023/05/16 07:28:49;;;;;;;7.55;1.60;;;11.90;99.90;;;;;;5128069;27;20027;-71
2023/05/16 07:31:16;;;;;;;4.40;1.30;;;12.00;49.20;;;;;;5131555;27;20054;-71
2023/05/16 07:33:42;;;;;;;5.88;1.50;;;11.90;99.90;;;;;;5130119;27;20050;-71
2023/05/16 07:36:09;;;;;;;6.38;1.38;;;11.70;1.00;;;;;;5124925;27;20059;-71
2023/05/16 07:38:34;;;;;;;7.13;1.30;;;11.50;99.90;;;;;;5128518;27;20043;-71
2023/05/16 07:41:00;;;;;;;6.35;1.45;;;11.60;1.00;;;;;;5128151;27;20054;-71
2023/05/16 07:43:26;;;;;;;7.15;1.48;;;11.70;99.90;;;;;;5128623;27;20074;-71
2023/05/16 07:45:52;;;;;;;7.25;1.58;;;11.80;1.00;;;;;;5109228;27;20055;-71
2023/05/16 07:48:17;;;;;;;4.72;1.33;;;11.90;99.90;;;;;;5125135;27;20039;-71
2023/05/16 07:50:43;;;;;;;6.43;1.50;;;12.10;1.00;;;;;;5105900;28;20426;-71
2023/05/16 07:53:09;;;;;;;5.35;1.17;;;12.20;1.00;;;;;;5112844;27;20104;-71
2023/05/16 07:55:35;;;;;;;6.70;1.40;;;12.30;99.90;;;;;;5112589;27;20533;-71
2023/05/16 07:58:01;;;;;;;8.02;1.40;;;12.20;99.90;;;;;;5093682;28;20054;-72
2023/05/16 08:00:27;;;;;;;5.07;1.60;;;11.90;99.90;;;;;;5118972;27;20058;-71
2023/05/16 08:02:52;;;;;;;6.53;1.63;;;11.60;1.00;;;;;;5096806;28;20483;-71
2023/05/16 08:05:18;;;;;;;6.82;1.65;;;11.60;1.00;;;;;;5109827;27;20031;-72
2023/05/16 08:07:44;;;;;;;6.22;1.35;;;12.00;22.30;;;;;;5103971;27;20092;-72
2023/05/16 08:10:09;;;;;;;7.10;1.23;;;12.30;99.90;;;;;;5123021;27;20043;-71
2023/05/16 08:12:35;;;;;;;4.30;1.17;;;12.70;99.90;;;;;;5122204;27;20035;-71
2023/05/16 08:15:01;;;;;;;7.28;1.98;;;12.70;1.00;;;;;;5121962;27;20051;-71
2023/05/16 08:17:27;;;;;;;5.72;1.27;;;12.60;99.90;;;;;;5116522;27;20047;-72
2023/05/16 08:19:53;;;;;;;4.72;0.98;;;12.10;99.90;;;;;;5112907;27;20084;-72
2023/05/16 08:22:19;;;;;;;1.77;0.60;;;11.20;1.00;;;;;;5120340;27;20077;-72
2023/05/16 08:24:44;;;;;;;1.73;0.65;;;10.90;1.00;;;;;;5117568;27;20078;-72
2023/05/16 08:27:11;;;;;;;4.75;1.20;;;10.80;66.70;;;;;;5109456;28;20120;-71
2023/05/16 08:29:36;;;;;;;;;;;11.00;99.90;;;;;;5119709;27;20039;-72
2023/05/16 08:32:02;;;;;;;5.00;1.10;;;11.20;99.90;;;;;;5115008;27;19919;-72
2023/05/16 08:34:31;;;;;;;4.38;1.35;;;11.60;1.00;;;;;;5127954;27;20043;-71
2023/05/16 08:36:56;;;;;;;4.40;1.10;;;11.80;99.90;;;;;;5122547;27;20482;-71
2023/05/16 08:39:22;;;;;;;5.75;1.42;;;12.00;99.90;;;;;;5128369;27;20078;-71
2023/05/16 08:41:48;;;;;;;5.05;1.30;;;12.50;1.00;;;;;;5128251;27;20498;-72
2023/05/16 08:44:20;;;;;;;6.57;1.30;;;12.60;1.00;;;;;;5110922;28;20047;-72
2023/05/16 08:46:51;;;;;;;6.50;1.60;;;12.20;99.90;;;;;;5140524;27;20095;-72
2023/05/16 08:49:17;;;;;;;6.70;1.70;;;11.80;99.90;;;;;;5116073;27;20047;-71
2023/05/16 08:51:50;;;;;;;6.20;1.52;;;11.30;99.90;;;;;;5114681;27;20039;-71
2023/05/16 08:54:16;;;;;;;4.78;1.30;;;11.70;99.90;;;;;;5109550;28;20341;-71
2023/05/16 08:56:42;;;;;;;;;;;11.90;99.90;;;;;;5119013;27;20058;-72
2023/05/16 08:59:10;;;;;;;5.60;1.23;;;11.90;99.90;;;;;;5117456;27;19916;-71
2023/05/16 09:01:36;;;;;;;8.18;1.65;;;12.10;9.90;;;;;;5114360;28;20043;-71
2023/05/16 09:04:04;;;;;;;7.55;1.80;;;12.50;99.90;;;;;;5110358;28;20487;-71
2023/05/16 09:06:29;;;;;;;6.75;1.75;;;12.40;99.90;;;;;;5114579;27;20039;-71
2023/05/16 09:08:55;;;;;;;5.80;1.20;;;12.20;1.00;;;;;;5129719;28;20054;-71
2023/05/16 09:11:21;;;;;;;10.48;1.63;;;12.50;99.90;;;;;;5130123;28;20078;-71
2023/05/16 09:13:48;;;;;;;5.43;1.70;;;12.60;1.00;;;;;;5112025;28;20035;-71
2023/05/16 09:16:22;;;;;;;8.00;1.60;;;12.40;99.90;;;;;;5126606;28;20046;-70
2023/05/16 09:18:57;;;;;;;3.63;1.20;;;12.30;99.90;;;;;;5111232;28;20557;-69
2023/05/16 09:21:30;;;;;;;8.23;1.42;;;12.30;1.00;;;;;;5112345;28;20425;-69
2023/05/16 09:24:01;;;;;;;6.00;1.38;;;12.30;80.20;;;;;;5124247;27;20487;-70
2023/05/16 09:26:27;;;;;;;7.25;1.83;;;12.80;1.00;;;;;;5107396;27;20081;-69
2023/05/16 09:28:54;;;;;;;;;;;12.60;99.90;;;;;;5124562;27;20038;-69
2023/05/16 09:31:36;;;;;;;6.65;1.55;;;12.40;42.20;;;;;;5099908;27;19920;-69
2023/05/16 09:34:06;;;;;;;6.82;1.55;;;12.00;1.00;;;;;;5124902;27;20049;-69
2023/05/16 09:36:32;;;;;;;5.22;1.42;;;11.90;99.90;;;;;;5119431;27;20044;-70
2023/05/16 09:38:57;;;;;;;4.38;0.95;;;12.00;99.90;;;;;;5121606;27;20047;-69
2023/05/16 09:41:23;;;;;;;5.80;1.42;;;12.00;99.90;;;;;;5113971;27;20051;-69
2023/05/16 09:43:49;;;;;;;5.53;1.20;;;12.30;99.90;;;;;;5111508;28;20470;-69
2023/05/16 09:46:15;;;;;;;4.70;1.00;;;12.50;74.90;;;;;;5125531;27;20078;-69
2023/05/16 09:48:45;;;;;;;4.25;1.27;;;13.10;90.00;;;;;;5133393;27;20459;-70
2023/05/16 09:51:12;;;;;;;7.10;1.52;;;13.20;99.90;;;;;;5133099;27;20045;-70
2023/05/16 09:53:38;;;;;;;4.07;1.25;;;13.40;99.90;;;;;;5133290;27;20039;-70
2023/05/16 09:56:11;;;;;;;8.73;1.40;;;13.60;99.90;;;;;;5116496;27;20097;-69
2023/05/16 09:58:38;;;;;;;5.97;1.20;;;13.10;99.90;;;;;;5133007;27;20050;-70
2023/05/16 10:01:06;;;;;;;5.60;1.40;;;12.60;99.90;;;;;;5132928;27;20047;-70
2023/05/16 10:03:35;;;;;;;9.65;1.42;;;12.50;99.90;;;;;;5115654;27;20089;-69
2023/05/16 10:06:01;;;;;;;3.65;1.10;;;12.80;99.90;;;;;;5132972;27;20053;-69
2023/05/16 10:08:29;;;;;;;3.88;1.10;;;13.30;1.00;;;;;;5133385;27;20205;-70
2023/05/16 10:10:55;;;;;;;6.40;1.52;;;13.50;99.90;;;;;;5132728;27;20043;-69
2023/05/16 10:13:27;;;;;;;4.68;1.25;;;13.90;99.90;;;;;;5132980;27;20047;-70
2023/05/16 10:15:55;;;;;;;7.78;1.52;;;13.90;99.90;;;;;;5132465;27;20485;-70
2023/05/16 10:18:23;;;;;;;5.38;1.30;;;13.50;99.90;;;;;;5132719;27;20043;-70
2023/05/16 10:20:54;;;;;;;4.68;1.27;;;12.70;99.90;;;;;;5132801;27;20082;-69
2023/05/16 10:23:21;;;;;;;6.57;1.30;;;12.60;1.00;;;;;;5110873;27;20047;-68
2023/05/16 10:25:48;;;;;;;4.22;1.00;;;12.70;1.00;;;;;;5098985;27;20047;-69
2023/05/16 10:28:15;;;;;;;7.80;1.48;;;13.20;99.90;;;;;;5126971;27;20119;-69
2023/05/16 10:30:43;;;;;;;8.57;1.60;;;13.30;99.90;;;;;;5116021;27;20118;-69
2023/05/16 10:33:12;;;;;;;7.13;1.35;;;13.90;99.90;;;;;;5116865;27;20050;-69
2023/05/16 10:35:37;;;;;;;6.15;1.35;;;13.90;65.30;;;;;;5118499;27;20068;-69
2023/05/16 10:38:05;;;;;;;6.03;1.23;;;14.10;94.60;;;;;;5133767;27;20062;-69
2023/05/16 10:40:31;;;;;;;2.97;0.90;;;14.00;71.20;;;;;;5132175;27;20047;-69
2023/05/16 10:42:59;;;;;;;4.15;1.00;;;14.00;1.00;;;;;;5126302;27;20376;-69
2023/05/16 10:45:25;;;;;;;4.18;1.08;;;14.30;1.00;;;;;;5120671;27;20046;-69
2023/05/16 10:48:03;;;;;;;4.45;1.20;;;14.70;1.00;;;;;;5112108;27;20044;-69
2023/05/16 10:50:37;;;;;;;7.07;1.40;;;14.20;1.00;;;;;;5131086;27;20072;-69
2023/05/16 10:53:22;;;;;;;11.23;1.70;;;13.80;1.00;;;;;;5128680;27;20047;-68
2023/05/16 10:56:09;;;;;;;6.95;1.42;;;13.70;1.00;;;;;;5115078;27;20046;-69
2023/05/16 10:58:37;;;;;;;6.38;1.15;;;13.70;99.90;;;;;;5127750;27;20038;-68
2023/05/16 11:01:30;;;;;;;6.53;1.25;;;14.10;1.00;;;;;;5119163;27;20495;-69
2023/05/16 11:03:56;;;;;;;7.10;1.27;;;13.30;1.00;;;;;;5099450;28;20042;-68
2023/05/16 11:06:25;;;;;;;4.20;1.33;;;12.90;1.00;;;;;;5119138;27;20039;-68
2023/05/16 11:09:04;;;;;;;6.63;1.63;;;13.50;1.00;;;;;;5113520;27;20040;-69
2023/05/16 11:12:02;;;;;;;3.90;1.15;;;13.70;1.00;;;;;;5111245;27;20043;-68
2023/05/16 11:14:31;;;;;;;5.18;1.20;;;13.40;99.90;;;;;;5094734;28;20039;-69
2023/05/16 11:17:05;;;;;;;5.00;1.40;;;14.10;1.00;;;;;;5113358;27;20043;-72
2023/05/16 11:19:38;;;;;;;4.88;1.20;;;13.80;99.90;;;;;;5112753;27;20108;-69
2023/05/16 11:22:07;;;;;;;5.25;1.20;;;13.70;99.90;;;;;;5111157;27;20043;-69
2023/05/16 11:24:34;;;;;;;7.50;1.35;;;14.10;99.90;;;;;;5112121;27;20063;-69
2023/05/16 11:27:01;;;;;;;6.65;1.30;;;13.70;99.90;;;;;;5114906;27;20050;-69
2023/05/16 11:29:35;;;;;;;5.00;1.50;;;13.50;99.90;;;;;;5122175;27;20045;-70
2023/05/16 11:32:04;;;;;;;5.95;1.58;;;13.20;99.90;;;;;;5110724;27;20075;-69
2023/05/16 11:34:36;;;;;;;9.90;2.00;;;12.90;99.90;;;;;;5122156;27;20039;-70
2023/05/16 11:37:02;;;;;;;6.38;1.77;;;12.90;1.00;;;;;;5127471;27;20486;-69
2023/05/16 11:39:31;;;;;;;9.18;1.75;;;12.90;32.90;;;;;;5113984;27;20090;-69
2023/05/16 11:41:56;;;;;;;6.05;1.70;;;12.80;99.90;;;;;;5110959;27;20047;-69
2023/05/16 11:44:22;;;;;;;5.30;1.70;;;12.80;99.90;;;;;;5122911;27;20054;-68
2023/05/16 11:46:48;;;;;;;8.20;1.38;;;13.50;9.70;;;;;;5122878;27;20034;-69
2023/05/16 11:49:14;;;;;;;4.45;1.20;;;14.30;1.00;;;;;;5121018;27;20161;-69
2023/05/16 11:51:42;;;;;;;6.05;1.80;;;14.40;1.00;;;;;;5120895;27;20053;-68
2023/05/16 11:54:11;;;;;;;5.13;1.60;;;14.10;1.00;;;;;;5119636;27;20111;-69
2023/05/16 11:56:39;;;;;;;5.53;1.83;;;14.50;1.00;;;;;;5129620;27;20121;-69
2023/05/16 11:59:06;;;;;;;6.47;1.77;;;14.40;99.90;;;;;;5127623;27;20540;-69
2023/05/16 12:01:36;;;;;;;;;;;14.20;99.90;;;;;;5117492;27;20043;-68
2023/05/16 12:04:12;;;;;;;6.57;2.17;;;14.50;99.90;;;;;;5097531;27;19963;-69
2023/05/16 12:06:38;;;;;;;5.75;1.75;;;14.40;1.00;;;;;;5119661;27;20502;-69
2023/05/16 12:09:11;;;;;;;5.25;1.90;;;14.10;99.90;;;;;;5125155;27;20111;-69
2023/05/16 12:11:43;;;;;;;7.63;2.10;;;14.20;1.00;;;;;;5128709;27;20050;-69
2023/05/16 12:14:12;;;;;;;3.35;1.58;;;14.40;1.00;;;;;;5125202;27;20043;-69
2023/05/16 12:16:41;;;;;;;9.32;1.88;;;14.40;99.90;;;;;;5120878;27;20043;-69
2023/05/16 12:19:07;;;;;;;4.68;1.85;;;14.50;1.00;;;;;;5120029;27;20050;-69
2023/05/16 12:21:33;;;;;;;5.95;1.90;;;14.70;1.00;;;;;;5123892;27;20140;-70
2023/05/16 12:24:01;;;;;;;5.30;1.92;;;14.50;1.00;;;;;;5115960;27;20048;-69
2023/05/16 12:26:32;;;;;;;6.03;2.10;;;14.30;1.00;;;;;;5124157;27;20050;-70
2023/05/16 12:29:03;;;;;;;6.15;2.00;;;14.20;1.00;;;;;;5119541;27;20074;-70
2023/05/16 12:31:30;;;;;;;5.05;1.70;;;14.20;1.00;;;;;;5121511;27;20043;-69
2023/05/16 12:33:57;;;;;;;5.00;1.80;;;14.10;1.00;;;;;;5112511;27;20062;-69
2023/05/16 12:36:25;;;;;;;7.00;1.83;;;14.10;18.90;;;;;;5118594;27;20505;-69
2023/05/16 12:38:52;;;;;;;6.07;2.10;;;14.00;1.00;;;;;;5117153;27;20051;-69
2023/05/16 12:41:18;;;;;;;10.10;2.45;;;13.60;1.00;;;;;;5121446;27;20452;-69
2023/05/16 12:43:44;;;;;;;5.53;2.15;;;13.10;1.00;;;;;;5105269;27;20038;-69
2023/05/16 12:46:13;;;;;;;6.78;2.53;;;12.90;64.50;;;;;;5123172;27;20391;-71
2023/05/16 12:48:43;;;;;;;6.07;2.17;;;12.70;99.90;;;;;;5113288;27;20081;-69
2023/05/16 12:51:18;;;;;;;4.45;2.10;;;12.30;99.90;;;;;;5120582;27;20040;-70
2023/05/16 12:53:46;;;;;;;4.60;2.30;;;11.70;99.90;;;;;;5114640;27;20039;-70
2023/05/16 12:56:14;;;;;;;5.18;2.05;;;11.30;99.90;;;;;;5118781;27;20505;-70
2023/05/16 12:58:40;;;;;;;4.55;2.28;;;11.50;1.00;;;;;;5113825;28;20042;-70